RCH258 LICZ-KBGR
Flight info
| Callsign | RCH258 |
|---|---|
| Flight time | N/A |
| Altitude | 34000 |
| Route | LIBRO DCT ADUKA DCT ALEDI DCT SUPUX DCT MUREN DCT VIBOK M601 BLV N75 DOSUL DCT LOTEE DCT RIVAK/M074F340 DCT 47N014W 48N022W 49N029W 49N037W 49N044W/N0435F340 DCT JOOPY N336B TOPPS |
| Aircraft | B737/M-SDFGHIM1RWXYZ/LB1 |
Departure
| Time | N/A |
|---|---|
| Airport | Sigonella Navy Air Base (LICZ) |
Arrival
| Time | 2026-05-05 00:01 |
|---|---|
| Airport | Bangor International Airport (KBGR) |
| Time | Latitude | Longitude | Altitude | Speed | Heading |
|---|---|---|---|---|---|
| 2026-05-04 21:53 | 48.65774 | -50.24992 | 34002 ft | 448 kts | 263° |
| 2026-05-04 21:54 | 48.65389 | -50.29667 | 34002 ft | 448 kts | 263° |
| 2026-05-04 21:54 | 48.64610 | -50.39029 | 34002 ft | 448 kts | 263° |
| 2026-05-04 21:55 | 48.63829 | -50.48327 | 34002 ft | 448 kts | 263° |
| 2026-05-04 21:55 | 48.63035 | -50.57696 | 34002 ft | 448 kts | 263° |
| 2026-05-04 21:56 | 48.62234 | -50.67041 | 34002 ft | 448 kts | 263° |
| 2026-05-04 21:56 | 48.61431 | -50.76325 | 34000 ft | 448 kts | 262° |
| 2026-05-04 21:57 | 48.60614 | -50.85680 | 34002 ft | 448 kts | 262° |
| 2026-05-04 21:57 | 48.59796 | -50.94966 | 34002 ft | 448 kts | 262° |
| 2026-05-04 21:58 | 48.58964 | -51.04312 | 34002 ft | 448 kts | 262° |
| 2026-05-04 21:58 | 48.58127 | -51.13631 | 34002 ft | 448 kts | 262° |
| 2026-05-04 21:59 | 48.57282 | -51.22954 | 34002 ft | 448 kts | 262° |
| 2026-05-04 21:59 | 48.56432 | -51.32237 | 34002 ft | 448 kts | 262° |
| 2026-05-04 22:00 | 48.55572 | -51.41554 | 34002 ft | 448 kts | 262° |
| 2026-05-04 22:00 | 48.54709 | -51.50823 | 34002 ft | 448 kts | 262° |
| 2026-05-04 22:01 | 48.53833 | -51.60141 | 34002 ft | 448 kts | 262° |
| 2026-05-04 22:01 | 48.52948 | -51.69469 | 34002 ft | 448 kts | 262° |
| 2026-05-04 22:02 | 48.52064 | -51.78711 | 34002 ft | 448 kts | 262° |
| 2026-05-04 22:02 | 48.51164 | -51.88038 | 34001 ft | 448 kts | 262° |
| 2026-05-04 22:03 | 48.50265 | -51.97291 | 34002 ft | 448 kts | 262° |
| 2026-05-04 22:03 | 48.49264 | -52.06574 | 33999 ft | 448 kts | 259° |
| 2026-05-04 22:04 | 48.48093 | -52.15809 | 34002 ft | 448 kts | 259° |
| 2026-05-04 22:04 | 48.46913 | -52.24968 | 34002 ft | 448 kts | 259° |
| 2026-05-04 22:05 | 48.45737 | -52.34190 | 34000 ft | 448 kts | 259° |
| 2026-05-04 22:05 | 48.44566 | -52.43415 | 34002 ft | 448 kts | 259° |
| 2026-05-04 22:06 | 48.43392 | -52.52636 | 34002 ft | 448 kts | 259° |
| 2026-05-04 22:06 | 48.42214 | -52.61821 | 34002 ft | 448 kts | 259° |
| 2026-05-04 22:07 | 48.41023 | -52.71045 | 34002 ft | 448 kts | 259° |
| 2026-05-04 22:07 | 48.39832 | -52.80206 | 33999 ft | 448 kts | 259° |
| 2026-05-04 22:08 | 48.38629 | -52.89399 | 34002 ft | 448 kts | 259° |
| 2026-05-04 22:08 | 48.37622 | -52.97049 | 34002 ft | 448 kts | 259° |
| 2026-05-04 22:09 | 48.36404 | -53.06248 | 34002 ft | 448 kts | 259° |
| 2026-05-04 22:09 | 48.35177 | -53.15449 | 34002 ft | 448 kts | 258° |
| 2026-05-04 22:10 | 48.33950 | -53.24599 | 34002 ft | 448 kts | 258° |
| 2026-05-04 22:10 | 48.32709 | -53.33785 | 34002 ft | 448 kts | 258° |
| 2026-05-04 22:11 | 48.31466 | -53.42938 | 34001 ft | 448 kts | 258° |
| 2026-05-04 22:11 | 48.30216 | -53.52077 | 34000 ft | 448 kts | 258° |
| 2026-05-04 22:12 | 48.28953 | -53.61259 | 34002 ft | 448 kts | 258° |
| 2026-05-04 22:12 | 48.27680 | -53.70446 | 34000 ft | 449 kts | 258° |
| 2026-05-04 22:13 | 48.26407 | -53.79587 | 34001 ft | 449 kts | 258° |
| 2026-05-04 22:13 | 48.25127 | -53.88716 | 34004 ft | 449 kts | 258° |
| 2026-05-04 22:14 | 48.23833 | -53.97890 | 34001 ft | 449 kts | 258° |
| 2026-05-04 22:14 | 48.22533 | -54.07053 | 34003 ft | 449 kts | 258° |
| 2026-05-04 22:15 | 48.21231 | -54.16169 | 34002 ft | 449 kts | 258° |
| 2026-05-04 22:15 | 48.19913 | -54.25341 | 34002 ft | 449 kts | 258° |
| 2026-05-04 22:16 | 48.18590 | -54.34496 | 34001 ft | 449 kts | 258° |
| 2026-05-04 22:16 | 48.17266 | -54.43606 | 34002 ft | 449 kts | 258° |
| 2026-05-04 22:17 | 48.15925 | -54.52771 | 34002 ft | 449 kts | 258° |
| 2026-05-04 22:17 | 48.14589 | -54.61853 | 34001 ft | 449 kts | 257° |
| 2026-05-04 22:18 | 48.13235 | -54.71001 | 34002 ft | 449 kts | 257° |
| 2026-05-04 22:18 | 48.11873 | -54.80147 | 34000 ft | 449 kts | 257° |
| 2026-05-04 22:19 | 48.10506 | -54.89279 | 33999 ft | 449 kts | 257° |
| 2026-05-04 22:19 | 48.09138 | -54.98363 | 33999 ft | 449 kts | 257° |
| 2026-05-04 22:20 | 48.07761 | -55.07451 | 34002 ft | 450 kts | 257° |
| 2026-05-04 22:20 | 48.06369 | -55.16590 | 34003 ft | 450 kts | 257° |
| 2026-05-04 22:21 | 48.04969 | -55.25723 | 34002 ft | 449 kts | 257° |
| 2026-05-04 22:21 | 48.03567 | -55.34824 | 33999 ft | 449 kts | 257° |
| 2026-05-04 22:22 | 48.02990 | -55.38556 | 34000 ft | 449 kts | 257° |
| 2026-05-04 22:22 | 48.01572 | -55.47683 | 34002 ft | 449 kts | 257° |
| 2026-05-04 22:23 | 48.00160 | -55.56720 | 34002 ft | 449 kts | 257° |
| 2026-05-04 22:23 | 47.98731 | -55.65818 | 34000 ft | 449 kts | 257° |
| 2026-05-04 22:24 | 47.97297 | -55.74897 | 34001 ft | 449 kts | 257° |
| 2026-05-04 22:24 | 47.95862 | -55.83929 | 34000 ft | 449 kts | 257° |
| 2026-05-04 22:25 | 47.94414 | -55.92999 | 34003 ft | 449 kts | 257° |
| 2026-05-04 22:25 | 47.92959 | -56.02057 | 34002 ft | 449 kts | 256° |
| 2026-05-04 22:26 | 47.91494 | -56.11131 | 34002 ft | 449 kts | 256° |
| 2026-05-04 22:26 | 47.90032 | -56.20139 | 34001 ft | 449 kts | 256° |
| 2026-05-04 22:27 | 47.88557 | -56.29177 | 34001 ft | 449 kts | 256° |
| 2026-05-04 22:27 | 47.87078 | -56.38186 | 34002 ft | 449 kts | 256° |
| 2026-05-04 22:28 | 47.85583 | -56.47248 | 34002 ft | 449 kts | 256° |
| 2026-05-04 22:28 | 47.84083 | -56.56295 | 34002 ft | 449 kts | 256° |
| 2026-05-04 22:29 | 47.82584 | -56.65283 | 34003 ft | 450 kts | 256° |
| 2026-05-04 22:29 | 47.81069 | -56.74323 | 34003 ft | 450 kts | 256° |
| 2026-05-04 22:30 | 47.79547 | -56.83357 | 34004 ft | 450 kts | 256° |
| 2026-05-04 22:30 | 47.78026 | -56.92338 | 34002 ft | 450 kts | 256° |
| 2026-05-04 22:31 | 47.76489 | -57.01366 | 34002 ft | 450 kts | 256° |
| 2026-05-04 22:31 | 47.74943 | -57.10395 | 34000 ft | 450 kts | 256° |
| 2026-05-04 22:32 | 47.73391 | -57.19423 | 34002 ft | 450 kts | 256° |
| 2026-05-04 22:32 | 47.71842 | -57.28380 | 34003 ft | 450 kts | 256° |
| 2026-05-04 22:33 | 47.70274 | -57.37398 | 33997 ft | 450 kts | 256° |
| 2026-05-04 22:33 | 47.68714 | -57.46328 | 34004 ft | 449 kts | 255° |
| 2026-05-04 22:34 | 47.67134 | -57.55328 | 34004 ft | 449 kts | 255° |
| 2026-05-04 22:34 | 47.65557 | -57.64265 | 34000 ft | 449 kts | 255° |
| 2026-05-04 22:35 | 47.63970 | -57.73214 | 34000 ft | 449 kts | 255° |
| 2026-05-04 22:35 | 47.62375 | -57.82164 | 34000 ft | 448 kts | 255° |
| 2026-05-04 22:36 | 47.60773 | -57.91108 | 34001 ft | 448 kts | 255° |
| 2026-05-04 22:36 | 47.59166 | -58.00038 | 34000 ft | 448 kts | 255° |
| 2026-05-04 22:37 | 47.57563 | -58.08900 | 34002 ft | 447 kts | 255° |
| 2026-05-04 22:37 | 47.55940 | -58.17830 | 34001 ft | 447 kts | 255° |
| 2026-05-04 22:38 | 47.54324 | -58.26677 | 34002 ft | 447 kts | 255° |
| 2026-05-04 22:38 | 47.52707 | -58.35487 | 34001 ft | 446 kts | 254° |
| 2026-05-04 22:39 | 47.51067 | -58.44362 | 34013 ft | 448 kts | 255° |
| 2026-05-04 22:39 | 47.49425 | -58.53229 | 34010 ft | 448 kts | 255° |
| 2026-05-04 22:40 | 47.47798 | -58.61972 | 33999 ft | 437 kts | 255° |
| 2026-05-04 22:40 | 47.46183 | -58.70612 | 34000 ft | 434 kts | 255° |
| 2026-05-04 22:41 | 47.44565 | -58.79222 | 34000 ft | 434 kts | 255° |
| 2026-05-04 22:41 | 47.42949 | -58.87785 | 34003 ft | 435 kts | 255° |
| 2026-05-04 22:42 | 47.41312 | -58.96417 | 34002 ft | 437 kts | 255° |
| 2026-05-04 22:42 | 47.39661 | -59.05082 | 34003 ft | 438 kts | 255° |
| 2026-05-04 22:43 | 47.38001 | -59.13757 | 33999 ft | 439 kts | 255° |
| 2026-05-04 22:43 | 47.36339 | -59.22400 | 34003 ft | 440 kts | 255° |
| 2026-05-04 22:44 | 47.34659 | -59.31099 | 33999 ft | 441 kts | 254° |
| 2026-05-04 22:44 | 47.32968 | -59.39817 | 34002 ft | 442 kts | 254° |
| 2026-05-04 22:45 | 47.31279 | -59.48483 | 34002 ft | 442 kts | 254° |
| 2026-05-04 22:45 | 47.28712 | -59.61577 | 34000 ft | 442 kts | 254° |
| 2026-05-04 22:46 | 47.27003 | -59.70250 | 34001 ft | 442 kts | 254° |
| 2026-05-04 22:46 | 47.25290 | -59.78900 | 34002 ft | 442 kts | 254° |
| 2026-05-04 22:47 | 47.23560 | -59.87599 | 33999 ft | 441 kts | 254° |
| 2026-05-04 22:47 | 47.21836 | -59.96230 | 34002 ft | 441 kts | 254° |
| 2026-05-04 22:48 | 47.20099 | -60.04889 | 34001 ft | 441 kts | 254° |
| 2026-05-04 22:48 | 47.18353 | -60.13552 | 34002 ft | 440 kts | 254° |
| 2026-05-04 22:49 | 47.16616 | -60.22132 | 34002 ft | 440 kts | 254° |
| 2026-05-04 22:49 | 47.14861 | -60.30766 | 34002 ft | 440 kts | 253° |
| 2026-05-04 22:50 | 47.13101 | -60.39385 | 34002 ft | 440 kts | 253° |
| 2026-05-04 22:50 | 47.11348 | -60.47934 | 34000 ft | 440 kts | 253° |
| 2026-05-04 22:51 | 47.09576 | -60.56541 | 34001 ft | 440 kts | 253° |
| 2026-05-04 22:51 | 47.08630 | -60.61116 | 33999 ft | 440 kts | 253° |
| 2026-05-04 22:52 | 47.06970 | -60.69127 | 34000 ft | 440 kts | 253° |
| 2026-05-04 22:52 | 47.05177 | -60.77739 | 34002 ft | 440 kts | 253° |
| 2026-05-04 22:53 | 47.03396 | -60.86262 | 34002 ft | 440 kts | 253° |
| 2026-05-04 22:53 | 47.01595 | -60.94842 | 34002 ft | 440 kts | 253° |
| 2026-05-04 22:54 | 47.00091 | -61.01978 | 34002 ft | 440 kts | 253° |
| 2026-05-04 22:54 | 46.98279 | -61.10546 | 33999 ft | 440 kts | 253° |
| 2026-05-04 22:55 | 46.96468 | -61.19073 | 34002 ft | 440 kts | 253° |
| 2026-05-04 22:55 | 46.94641 | -61.27638 | 34002 ft | 440 kts | 253° |
| 2026-05-04 22:56 | 46.92809 | -61.36193 | 34002 ft | 440 kts | 253° |
| 2026-05-04 22:56 | 46.90968 | -61.44751 | 34002 ft | 440 kts | 253° |
| 2026-05-04 22:57 | 46.89131 | -61.53257 | 34002 ft | 440 kts | 253° |
| 2026-05-04 22:57 | 46.87277 | -61.61804 | 34002 ft | 440 kts | 253° |
| 2026-05-04 22:58 | 46.85418 | -61.70343 | 34002 ft | 440 kts | 253° |
| 2026-05-04 22:58 | 46.83559 | -61.78845 | 34002 ft | 440 kts | 252° |
| 2026-05-04 22:59 | 46.81696 | -61.87330 | 34002 ft | 440 kts | 252° |
| 2026-05-04 22:59 | 46.79816 | -61.95858 | 34000 ft | 440 kts | 252° |
| 2026-05-04 23:00 | 46.77932 | -62.04370 | 34000 ft | 440 kts | 252° |
| 2026-05-04 23:00 | 46.76047 | -62.12849 | 34001 ft | 440 kts | 252° |
| 2026-05-04 23:01 | 46.74148 | -62.21361 | 34002 ft | 440 kts | 252° |
| 2026-05-04 23:01 | 46.72257 | -62.29805 | 34001 ft | 440 kts | 252° |
| 2026-05-04 23:02 | 46.70346 | -62.38301 | 34000 ft | 440 kts | 252° |
| 2026-05-04 23:02 | 46.68431 | -62.46782 | 34001 ft | 440 kts | 252° |
| 2026-05-04 23:03 | 46.66508 | -62.55261 | 34002 ft | 440 kts | 252° |
| 2026-05-04 23:03 | 46.64594 | -62.63670 | 34002 ft | 440 kts | 252° |
| 2026-05-04 23:04 | 46.62660 | -62.72134 | 34000 ft | 440 kts | 252° |
| 2026-05-04 23:04 | 46.60721 | -62.80588 | 34002 ft | 440 kts | 252° |
| 2026-05-04 23:05 | 46.58774 | -62.89041 | 34002 ft | 440 kts | 252° |
| 2026-05-04 23:05 | 46.56831 | -62.97442 | 34002 ft | 440 kts | 252° |
| 2026-05-04 23:06 | 46.54870 | -63.05890 | 34000 ft | 440 kts | 252° |
| 2026-05-04 23:06 | 46.52905 | -63.14324 | 34002 ft | 440 kts | 252° |
| 2026-05-04 23:07 | 46.50940 | -63.22723 | 34002 ft | 440 kts | 251° |
| 2026-05-04 23:07 | 46.48963 | -63.31145 | 34001 ft | 440 kts | 251° |
| 2026-05-04 23:08 | 46.46984 | -63.39538 | 34003 ft | 440 kts | 251° |
| 2026-05-04 23:08 | 46.44995 | -63.47945 | 34002 ft | 441 kts | 251° |
| 2026-05-04 23:09 | 46.42999 | -63.56347 | 34003 ft | 441 kts | 251° |
| 2026-05-04 23:09 | 46.40992 | -63.64762 | 34001 ft | 441 kts | 251° |
| 2026-05-04 23:10 | 46.38996 | -63.73103 | 34002 ft | 441 kts | 251° |
| 2026-05-04 23:10 | 46.36981 | -63.81492 | 34002 ft | 441 kts | 251° |
| 2026-05-04 23:11 | 46.34956 | -63.89884 | 34000 ft | 441 kts | 251° |
| 2026-05-04 23:11 | 46.32929 | -63.98262 | 34001 ft | 440 kts | 251° |
| 2026-05-04 23:12 | 46.30904 | -64.06592 | 34002 ft | 440 kts | 251° |
| 2026-05-04 23:12 | 46.28862 | -64.14966 | 34002 ft | 440 kts | 251° |
| 2026-05-04 23:13 | 46.26829 | -64.23272 | 34002 ft | 440 kts | 251° |
| 2026-05-04 23:13 | 46.24775 | -64.31632 | 34000 ft | 440 kts | 251° |
| 2026-05-04 23:14 | 46.22717 | -64.39973 | 33999 ft | 440 kts | 251° |
| 2026-05-04 23:14 | 46.20661 | -64.48279 | 34001 ft | 440 kts | 251° |
| 2026-05-04 23:15 | 46.18594 | -64.56602 | 34002 ft | 440 kts | 251° |
| 2026-05-04 23:15 | 46.16527 | -64.64892 | 33999 ft | 440 kts | 251° |
| 2026-05-04 23:16 | 46.14439 | -64.73232 | 34000 ft | 441 kts | 250° |
| 2026-05-04 23:16 | 46.12360 | -64.81511 | 34002 ft | 441 kts | 250° |
| 2026-05-04 23:17 | 46.10265 | -64.89821 | 33999 ft | 441 kts | 250° |
| 2026-05-04 23:17 | 46.08273 | -64.98169 | 33993 ft | 440 kts | 257° |
| 2026-05-04 23:18 | 46.07165 | -65.06794 | 34000 ft | 440 kts | 261° |
| 2026-05-04 23:18 | 46.06154 | -65.15522 | 34001 ft | 440 kts | 261° |
| 2026-05-04 23:19 | 46.05110 | -65.24168 | 34003 ft | 440 kts | 260° |
| 2026-05-04 23:19 | 46.04020 | -65.32869 | 34003 ft | 441 kts | 260° |
| 2026-05-04 23:20 | 46.02920 | -65.41500 | 34001 ft | 441 kts | 260° |
| 2026-05-04 23:20 | 46.01803 | -65.50197 | 34001 ft | 441 kts | 259° |
| 2026-05-04 23:21 | 46.00698 | -65.58750 | 34003 ft | 441 kts | 259° |
| 2026-05-04 23:21 | 46.00024 | -65.63944 | 33989 ft | 441 kts | 259° |
| 2026-05-04 23:22 | 45.99073 | -65.71246 | 33853 ft | 444 kts | 259° |
| 2026-05-04 23:22 | 45.97926 | -65.79995 | 33783 ft | 444 kts | 259° |
| 2026-05-04 23:23 | 45.96782 | -65.88672 | 33776 ft | 443 kts | 259° |
| 2026-05-04 23:23 | 45.95628 | -65.97367 | 33780 ft | 441 kts | 259° |
| 2026-05-04 23:24 | 45.94481 | -66.05961 | 33774 ft | 440 kts | 259° |
| 2026-05-04 23:24 | 45.93319 | -66.14617 | 33774 ft | 439 kts | 259° |
| 2026-05-04 23:25 | 45.92163 | -66.23176 | 33780 ft | 438 kts | 259° |
| 2026-05-04 23:25 | 45.90992 | -66.31790 | 33779 ft | 438 kts | 259° |
| 2026-05-04 23:26 | 45.89819 | -66.40374 | 33767 ft | 438 kts | 259° |
| 2026-05-04 23:26 | 45.88643 | -66.48924 | 33782 ft | 438 kts | 259° |
| 2026-05-04 23:27 | 45.87455 | -66.57515 | 33781 ft | 439 kts | 259° |
| 2026-05-04 23:27 | 45.86259 | -66.66112 | 33777 ft | 439 kts | 259° |
| 2026-05-04 23:28 | 45.85055 | -66.74714 | 33772 ft | 440 kts | 259° |
| 2026-05-04 23:28 | 45.83850 | -66.83277 | 33782 ft | 440 kts | 259° |
| 2026-05-04 23:29 | 45.82630 | -66.91895 | 33781 ft | 441 kts | 259° |
| 2026-05-04 23:29 | 45.81408 | -67.00480 | 33782 ft | 441 kts | 258° |
| 2026-05-04 23:30 | 45.80171 | -67.09117 | 33774 ft | 442 kts | 258° |
| 2026-05-04 23:30 | 45.78926 | -67.17761 | 33627 ft | 444 kts | 258° |
| 2026-05-04 23:31 | 45.78307 | -67.22047 | 33365 ft | 442 kts | 258° |
| 2026-05-04 23:31 | 45.77679 | -67.26374 | 33117 ft | 441 kts | 258° |
| 2026-05-04 23:31 | 45.77051 | -67.30691 | 32873 ft | 443 kts | 258° |
| 2026-05-04 23:31 | 45.76421 | -67.35012 | 32628 ft | 444 kts | 258° |
| 2026-05-04 23:32 | 45.75788 | -67.39344 | 32379 ft | 444 kts | 258° |
| 2026-05-04 23:32 | 45.75151 | -67.43686 | 32133 ft | 445 kts | 258° |
| 2026-05-04 23:32 | 45.74521 | -67.47968 | 31886 ft | 445 kts | 258° |
| 2026-05-04 23:32 | 45.73879 | -67.52322 | 31637 ft | 444 kts | 258° |
| 2026-05-04 23:33 | 45.73239 | -67.56650 | 31386 ft | 443 kts | 258° |
| 2026-05-04 23:33 | 45.72598 | -67.60977 | 31135 ft | 442 kts | 258° |
| 2026-05-04 23:33 | 45.71968 | -67.65214 | 30882 ft | 440 kts | 258° |
| 2026-05-04 23:33 | 45.71331 | -67.69488 | 30638 ft | 438 kts | 258° |
| 2026-05-04 23:34 | 45.70698 | -67.73734 | 30388 ft | 435 kts | 258° |
| 2026-05-04 23:34 | 45.70065 | -67.77958 | 30135 ft | 432 kts | 258° |
| 2026-05-04 23:34 | 45.69434 | -67.82153 | 29878 ft | 430 kts | 258° |
| 2026-05-04 23:34 | 45.68807 | -67.86329 | 29631 ft | 428 kts | 258° |
| 2026-05-04 23:35 | 45.68182 | -67.90486 | 29383 ft | 425 kts | 258° |
| 2026-05-04 23:35 | 45.67570 | -67.94553 | 28896 ft | 422 kts | 258° |
| 2026-05-04 23:35 | 45.66687 | -67.98511 | 28417 ft | 414 kts | 243° |
| 2026-05-04 23:35 | 45.65035 | -68.01828 | 27925 ft | 409 kts | 225° |
| 2026-05-04 23:36 | 45.62835 | -68.04416 | 27352 ft | 406 kts | 217° |
| 2026-05-04 23:36 | 45.60514 | -68.06698 | 26748 ft | 404 kts | 215° |
| 2026-05-04 23:36 | 45.58171 | -68.08904 | 26134 ft | 401 kts | 214° |
| 2026-05-04 23:36 | 45.55868 | -68.11047 | 25531 ft | 398 kts | 214° |
| 2026-05-04 23:37 | 45.53548 | -68.13197 | 24922 ft | 395 kts | 214° |
| 2026-05-04 23:37 | 45.51246 | -68.15323 | 24313 ft | 393 kts | 214° |
| 2026-05-04 23:37 | 45.48960 | -68.17430 | 23700 ft | 390 kts | 214° |
| 2026-05-04 23:37 | 45.46687 | -68.19523 | 23088 ft | 387 kts | 214° |
| 2026-05-04 23:38 | 45.44425 | -68.21603 | 22474 ft | 384 kts | 214° |
| 2026-05-04 23:38 | 45.42208 | -68.23640 | 21879 ft | 382 kts | 214° |
| 2026-05-04 23:38 | 45.39982 | -68.25685 | 21277 ft | 379 kts | 214° |
| 2026-05-04 23:38 | 45.37771 | -68.27715 | 20669 ft | 376 kts | 214° |
| 2026-05-04 23:39 | 45.35582 | -68.29725 | 20067 ft | 373 kts | 214° |
| 2026-05-04 23:39 | 45.33408 | -68.31719 | 19468 ft | 370 kts | 214° |
| 2026-05-04 23:39 | 45.31245 | -68.33703 | 18867 ft | 368 kts | 214° |
| 2026-05-04 23:39 | 45.29106 | -68.35664 | 18270 ft | 365 kts | 214° |
| 2026-05-04 23:40 | 45.26982 | -68.37610 | 17684 ft | 362 kts | 214° |
| 2026-05-04 23:40 | 45.24881 | -68.39533 | 17231 ft | 355 kts | 214° |
| 2026-05-04 23:40 | 45.22843 | -68.41398 | 16688 ft | 352 kts | 214° |
| 2026-05-04 23:40 | 45.20792 | -68.43273 | 16130 ft | 349 kts | 214° |
| 2026-05-04 23:41 | 45.18756 | -68.45136 | 15559 ft | 347 kts | 214° |
| 2026-05-04 23:41 | 45.16734 | -68.46984 | 14996 ft | 344 kts | 214° |
| 2026-05-04 23:41 | 45.14736 | -68.48808 | 14710 ft | 336 kts | 214° |
| 2026-05-04 23:41 | 45.12780 | -68.50593 | 14405 ft | 334 kts | 214° |
| 2026-05-04 23:42 | 45.11488 | -68.51772 | 14180 ft | 334 kts | 214° |
| 2026-05-04 23:42 | 45.09520 | -68.53567 | 13777 ft | 337 kts | 214° |
| 2026-05-04 23:42 | 45.06904 | -68.55955 | 13189 ft | 336 kts | 214° |
| 2026-05-04 23:42 | 45.04982 | -68.57705 | 12667 ft | 321 kts | 214° |
| 2026-05-04 23:43 | 45.03727 | -68.58846 | 12328 ft | 313 kts | 214° |
| 2026-05-04 23:43 | 45.01950 | -68.60457 | 11826 ft | 302 kts | 214° |
| 2026-05-04 23:43 | 45.00199 | -68.62042 | 11315 ft | 293 kts | 214° |
| 2026-05-04 23:43 | 44.98513 | -68.63564 | 11057 ft | 280 kts | 214° |
| 2026-05-04 23:44 | 44.96872 | -68.65044 | 11010 ft | 280 kts | 214° |
| 2026-05-04 23:44 | 44.95234 | -68.66520 | 10988 ft | 278 kts | 214° |
| 2026-05-04 23:44 | 44.93604 | -68.67988 | 10998 ft | 280 kts | 214° |
| 2026-05-04 23:44 | 44.91977 | -68.69456 | 10996 ft | 281 kts | 214° |
| 2026-05-04 23:45 | 44.90331 | -68.70939 | 10983 ft | 279 kts | 214° |
| 2026-05-04 23:45 | 44.88697 | -68.72410 | 10985 ft | 277 kts | 214° |
| 2026-05-04 23:45 | 44.87074 | -68.73872 | 10984 ft | 275 kts | 214° |
| 2026-05-04 23:45 | 44.85481 | -68.75305 | 10984 ft | 274 kts | 214° |
| 2026-05-04 23:46 | 44.83870 | -68.76755 | 10987 ft | 274 kts | 214° |
| 2026-05-04 23:46 | 44.82260 | -68.78203 | 10986 ft | 274 kts | 214° |
| 2026-05-04 23:46 | 44.80650 | -68.79652 | 10993 ft | 275 kts | 214° |
| 2026-05-04 23:46 | 44.79029 | -68.81111 | 10996 ft | 276 kts | 214° |
| 2026-05-04 23:47 | 44.77405 | -68.82574 | 10996 ft | 278 kts | 214° |
| 2026-05-04 23:47 | 44.75775 | -68.84044 | 10991 ft | 279 kts | 214° |
| 2026-05-04 23:47 | 44.74152 | -68.85508 | 10993 ft | 280 kts | 214° |
| 2026-05-04 23:47 | 44.72508 | -68.86990 | 10991 ft | 280 kts | 214° |
| 2026-05-04 23:48 | 44.70863 | -68.88472 | 10985 ft | 281 kts | 214° |
| 2026-05-04 23:48 | 44.69218 | -68.89956 | 10985 ft | 281 kts | 214° |
| 2026-05-04 23:48 | 44.67571 | -68.91441 | 10987 ft | 280 kts | 214° |
| 2026-05-04 23:48 | 44.65943 | -68.92910 | 10986 ft | 280 kts | 214° |
| 2026-05-04 23:49 | 44.64302 | -68.94391 | 10987 ft | 280 kts | 214° |
| 2026-05-04 23:49 | 44.62659 | -68.95873 | 10985 ft | 279 kts | 214° |
| 2026-05-04 23:49 | 44.61020 | -68.97351 | 10983 ft | 279 kts | 215° |
| 2026-05-04 23:49 | 44.59383 | -68.98826 | 10984 ft | 279 kts | 214° |
| 2026-05-04 23:50 | 44.57769 | -69.00267 | 10953 ft | 280 kts | 212° |
| 2026-05-04 23:50 | 44.55901 | -69.01106 | 10757 ft | 287 kts | 185° |
| 2026-05-04 23:50 | 44.53929 | -69.00682 | 10600 ft | 291 kts | 159° |
| 2026-05-04 23:50 | 44.52264 | -68.99065 | 10442 ft | 293 kts | 133° |
| 2026-05-04 23:51 | 44.51268 | -68.96593 | 10272 ft | 293 kts | 106° |
| 2026-05-04 23:51 | 44.50935 | -68.93782 | 10138 ft | 292 kts | 96° |
| 2026-05-04 23:51 | 44.50743 | -68.90932 | 9854 ft | 296 kts | 95° |
| 2026-05-04 23:51 | 44.50688 | -68.90032 | 9767 ft | 297 kts | 95° |
| 2026-05-04 23:52 | 44.50603 | -68.88624 | 9615 ft | 299 kts | 95° |
| 2026-05-04 23:52 | 44.50432 | -68.85732 | 9312 ft | 294 kts | 95° |
| 2026-05-04 23:52 | 44.50268 | -68.82897 | 8992 ft | 290 kts | 95° |
| 2026-05-04 23:52 | 44.50107 | -68.80082 | 8591 ft | 289 kts | 95° |
| 2026-05-04 23:53 | 44.49945 | -68.77273 | 8164 ft | 289 kts | 95° |
| 2026-05-04 23:53 | 44.49785 | -68.74489 | 7725 ft | 291 kts | 95° |
| 2026-05-04 23:53 | 44.49623 | -68.71660 | 7277 ft | 291 kts | 94° |
| 2026-05-04 23:53 | 44.49863 | -68.68851 | 6561 ft | 296 kts | 64° |
| 2026-05-04 23:54 | 44.51124 | -68.66717 | 6149 ft | 280 kts | 30° |
| 2026-05-04 23:54 | 44.52795 | -68.65459 | 5816 ft | 266 kts | 26° |
| 2026-05-04 23:54 | 44.54379 | -68.64191 | 5467 ft | 258 kts | 28° |
| 2026-05-04 23:54 | 44.55875 | -68.62927 | 5141 ft | 251 kts | 29° |
| 2026-05-04 23:55 | 44.57360 | -68.61643 | 4826 ft | 250 kts | 30° |
| 2026-05-04 23:55 | 44.58837 | -68.60352 | 4494 ft | 250 kts | 29° |
| 2026-05-04 23:55 | 44.61892 | -68.58160 | 3812 ft | 244 kts | 2° |
| 2026-05-04 23:56 | 44.63503 | -68.58527 | 3513 ft | 236 kts | 333° |
| 2026-05-04 23:56 | 44.64833 | -68.59814 | 3257 ft | 229 kts | 315° |
| 2026-05-04 23:56 | 44.65930 | -68.61368 | 3137 ft | 221 kts | 311° |
| 2026-05-04 23:56 | 44.66993 | -68.62940 | 3038 ft | 221 kts | 311° |
| 2026-05-04 23:57 | 44.68041 | -68.64471 | 2913 ft | 212 kts | 312° |
| 2026-05-04 23:57 | 44.69033 | -68.65909 | 2832 ft | 202 kts | 312° |
| 2026-05-04 23:57 | 44.69993 | -68.67297 | 2743 ft | 194 kts | 312° |
| 2026-05-04 23:57 | 44.70930 | -68.68648 | 2555 ft | 191 kts | 311° |
| 2026-05-04 23:58 | 44.71846 | -68.69968 | 2340 ft | 187 kts | 312° |
| 2026-05-04 23:58 | 44.72737 | -68.71252 | 2092 ft | 177 kts | 312° |
| 2026-05-04 23:58 | 44.73567 | -68.72448 | 1879 ft | 164 kts | 312° |
| 2026-05-04 23:58 | 44.74324 | -68.73537 | 1693 ft | 148 kts | 311° |
| 2026-05-04 23:59 | 44.75006 | -68.74517 | 1468 ft | 135 kts | 310° |
| 2026-05-04 23:59 | 44.75663 | -68.75466 | 1312 ft | 136 kts | 310° |
| 2026-05-04 23:59 | 44.76333 | -68.76435 | 1133 ft | 138 kts | 311° |
| 2026-05-04 23:59 | 44.77006 | -68.77408 | 950 ft | 139 kts | 311° |
| 2026-05-05 00:00 | 44.77681 | -68.78393 | 781 ft | 142 kts | 311° |
| 2026-05-05 00:00 | 44.77907 | -68.78716 | 703 ft | 143 kts | 312° |
| 2026-05-05 00:00 | 44.79063 | -68.80374 | 387 ft | 139 kts | 312° |
| 2026-05-05 00:00 | 44.79725 | -68.81339 | 207 ft | 136 kts | 312° |
| 2026-05-05 00:01 | 44.80329 | -68.82224 | 169 ft | 103 kts | 315° |
| 2026-05-05 00:01 | 44.80703 | -68.82754 | 179 ft | 66 kts | 314° |
| 2026-05-05 00:01 | 44.80992 | -68.83169 | 181 ft | 44 kts | 314° |
| 2026-05-05 00:01 | 44.81158 | -68.83312 | 182 ft | 24 kts | 30° |
| 2026-05-05 00:02 | 44.81278 | -68.83155 | 188 ft | 23 kts | 44° |
| 2026-05-05 00:02 | 44.81295 | -68.83006 | 200 ft | 17 kts | 133° |
| 2026-05-05 00:02 | 44.81214 | -68.82887 | 199 ft | 17 kts | 134° |
| 2026-05-05 00:02 | 44.81122 | -68.82755 | 188 ft | 20 kts | 134° |
| 2026-05-05 00:03 | 44.81053 | -68.82608 | 184 ft | 12 kts | 58° |
| 2026-05-05 00:03 | 44.81100 | -68.82519 | 184 ft | 11 kts | 92° |
| 2026-05-05 00:03 | 44.81078 | -68.82481 | 182 ft | 7 kts | 134° |
| 2026-05-05 00:03 | 44.81068 | -68.82467 | 181 ft | 0 kts | 134° |